sensor_id;sensor_type;location;lat;lon;timestamp;pressure;altitude;pressure_sealevel;temperature;humidity
44138;BME280;29800;55.942;37.314;2022-07-06T00:00:47;99395.28;;;19.62;70.88
44138;BME280;29800;55.942;37.314;2022-07-06T00:03:13;99405.22;;;19.55;71.25
44138;BME280;29800;55.942;37.314;2022-07-06T00:05:39;99400.78;;;19.45;71.26
44138;BME280;29800;55.942;37.314;2022-07-06T00:08:05;99394.03;;;19.37;71.55
44138;BME280;29800;55.942;37.314;2022-07-06T00:10:31;99389.91;;;19.35;71.90
44138;BME280;29800;55.942;37.314;2022-07-06T00:12:57;99399.53;;;19.28;71.72
44138;BME280;29800;55.942;37.314;2022-07-06T00:15:24;99391.19;;;19.28;71.60
44138;BME280;29800;55.942;37.314;2022-07-06T00:17:50;99390.19;;;19.24;71.68
44138;BME280;29800;55.942;37.314;2022-07-06T00:20:16;99378.09;;;19.20;71.65
44138;BME280;29800;55.942;37.314;2022-07-06T00:22:42;99390.00;;;19.21;71.77
44138;BME280;29800;55.942;37.314;2022-07-06T00:25:08;99372.16;;;19.13;71.94
44138;BME280;29800;55.942;37.314;2022-07-06T00:27:36;99370.31;;;19.08;72.22
44138;BME280;29800;55.942;37.314;2022-07-06T00:30:02;99371.78;;;19.06;72.27
44138;BME280;29800;55.942;37.314;2022-07-06T00:32:29;99366.88;;;19.03;72.30
44138;BME280;29800;55.942;37.314;2022-07-06T00:34:55;99373.84;;;19.00;72.36
44138;BME280;29800;55.942;37.314;2022-07-06T00:37:21;99367.31;;;18.96;72.14
44138;BME280;29800;55.942;37.314;2022-07-06T00:39:47;99362.41;;;18.93;72.62
44138;BME280;29800;55.942;37.314;2022-07-06T00:42:13;99359.44;;;18.89;72.83
44138;BME280;29800;55.942;37.314;2022-07-06T00:44:39;99367.25;;;18.87;72.76
44138;BME280;29800;55.942;37.314;2022-07-06T00:47:05;99367.03;;;18.84;73.06
44138;BME280;29800;55.942;37.314;2022-07-06T00:49:34;99366.53;;;18.82;73.46
44138;BME280;29800;55.942;37.314;2022-07-06T00:52:19;99380.69;;;18.80;73.24
44138;BME280;29800;55.942;37.314;2022-07-06T00:54:46;99378.03;;;18.75;73.34
44138;BME280;29800;55.942;37.314;2022-07-06T00:57:12;99375.91;;;18.72;73.50
44138;BME280;29800;55.942;37.314;2022-07-06T00:59:38;99381.75;;;18.70;73.47
44138;BME280;29800;55.942;37.314;2022-07-06T01:02:05;99380.94;;;18.70;73.20
44138;BME280;29800;55.942;37.314;2022-07-06T01:04:31;99380.94;;;18.70;73.19
44138;BME280;29800;55.942;37.314;2022-07-06T01:06:57;99387.91;;;18.67;73.27
44138;BME280;29800;55.942;37.314;2022-07-06T01:09:24;99383.34;;;18.63;73.03
44138;BME280;29800;55.942;37.314;2022-07-06T01:11:52;99384.16;;;18.63;73.13
44138;BME280;29800;55.942;37.314;2022-07-06T01:14:20;99392.88;;;18.57;73.30
44138;BME280;29800;55.942;37.314;2022-07-06T01:16:47;99392.16;;;18.51;73.17
44138;BME280;29800;55.942;37.314;2022-07-06T01:19:13;99388.09;;;18.48;73.45
44138;BME280;29800;55.942;37.314;2022-07-06T01:21:40;99386.44;;;18.47;73.74
44138;BME280;29800;55.942;37.314;2022-07-06T01:24:06;99388.72;;;18.45;73.87
44138;BME280;29800;55.942;37.314;2022-07-06T01:26:33;99381.50;;;18.44;73.73
44138;BME280;29800;55.942;37.314;2022-07-06T01:28:59;99383.28;;;18.40;73.75
44138;BME280;29800;55.942;37.314;2022-07-06T01:31:26;99386.56;;;18.42;73.87
44138;BME280;29800;55.942;37.314;2022-07-06T01:33:54;99392.09;;;18.42;74.03
44138;BME280;29800;55.942;37.314;2022-07-06T01:36:21;99388.22;;;18.43;74.38
44138;BME280;29800;55.942;37.314;2022-07-06T01:38:49;99398.44;;;18.43;74.21
44138;BME280;29800;55.942;37.314;2022-07-06T01:41:17;99379.34;;;18.41;74.40
44138;BME280;29800;55.942;37.314;2022-07-06T01:43:44;99388.81;;;18.40;74.56
44138;BME280;29800;55.942;37.314;2022-07-06T01:46:11;99391.06;;;18.38;74.62
44138;BME280;29800;55.942;37.314;2022-07-06T01:48:37;99393.31;;;18.36;74.77
44138;BME280;29800;55.942;37.314;2022-07-06T01:51:04;99389.25;;;18.33;74.57
44138;BME280;29800;55.942;37.314;2022-07-06T01:53:32;99396.22;;;18.31;74.83
44138;BME280;29800;55.942;37.314;2022-07-06T01:55:59;99400.09;;;18.30;74.94
44138;BME280;29800;55.942;37.314;2022-07-06T01:58:26;99405.63;;;18.30;74.87
44138;BME280;29800;55.942;37.314;2022-07-06T02:00:52;99411.00;;;18.26;74.66
44138;BME280;29800;55.942;37.314;2022-07-06T02:03:19;99411.84;;;18.27;74.63
44138;BME280;29800;55.942;37.314;2022-07-06T02:05:45;99410.19;;;18.26;74.91
44138;BME280;29800;55.942;37.314;2022-07-06T02:08:11;99398.28;;;18.25;74.83
44138;BME280;29800;55.942;37.314;2022-07-06T02:10:37;99402.69;;;18.26;74.86
44138;BME280;29800;55.942;37.314;2022-07-06T02:13:03;99402.97;;;18.25;74.93
44138;BME280;29800;55.942;37.314;2022-07-06T02:15:31;99403.59;;;18.22;74.92
44138;BME280;29800;55.942;37.314;2022-07-06T02:17:58;99406.38;;;18.22;75.21
44138;BME280;29800;55.942;37.314;2022-07-06T02:20:24;99410.59;;;18.19;75.26
44138;BME280;29800;55.942;37.314;2022-07-06T02:22:50;99411.41;;;18.19;75.49
44138;BME280;29800;55.942;37.314;2022-07-06T02:25:16;99407.53;;;18.21;75.54
44138;BME280;29800;55.942;37.314;2022-07-06T02:27:43;99404.75;;;18.21;75.73
44138;BME280;29800;55.942;37.314;2022-07-06T02:30:10;99404.75;;;18.21;75.68
44138;BME280;29800;55.942;37.314;2022-07-06T02:32:37;99397.13;;;18.26;76.05
44138;BME280;29800;55.942;37.314;2022-07-06T02:35:04;99408.22;;;18.26;76.14
44138;BME280;29800;55.942;37.314;2022-07-06T02:37:30;99407.09;;;18.27;75.99
44138;BME280;29800;55.942;37.314;2022-07-06T02:39:56;99404.63;;;18.26;75.98
44138;BME280;29800;55.942;37.314;2022-07-06T02:42:22;99405.44;;;18.26;76.23
44138;BME280;29800;55.942;37.314;2022-07-06T02:44:48;99398.28;;;18.25;76.57
44138;BME280;29800;55.942;37.314;2022-07-06T02:47:15;99396.84;;;18.28;77.03
44138;BME280;29800;55.942;37.314;2022-07-06T02:49:41;99389.03;;;18.30;77.32
44138;BME280;29800;55.942;37.314;2022-07-06T02:52:07;99399.47;;;18.33;77.49
44138;BME280;29800;55.942;37.314;2022-07-06T02:54:34;99390.56;;;18.36;77.31
44138;BME280;29800;55.942;37.314;2022-07-06T02:57:01;99387.78;;;18.36;77.69
44138;BME280;29800;55.942;37.314;2022-07-06T02:59:27;99385.53;;;18.38;78.00
44138;BME280;29800;55.942;37.314;2022-07-06T03:01:53;99382.13;;;18.41;78.25
44138;BME280;29800;55.942;37.314;2022-07-06T03:04:21;99385.44;;;18.43;78.68
44138;BME280;29800;55.942;37.314;2022-07-06T03:06:47;99383.66;;;18.47;78.80
44138;BME280;29800;55.942;37.314;2022-07-06T03:09:14;99375.03;;;18.49;79.03
44138;BME280;29800;55.942;37.314;2022-07-06T03:11:40;99379.34;;;18.55;79.67
44138;BME280;29800;55.942;37.314;2022-07-06T03:14:07;99386.72;;;18.60;79.75
44138;BME280;29800;55.942;37.314;2022-07-06T03:16:36;99392.16;;;18.65;79.92
44138;BME280;29800;55.942;37.314;2022-07-06T03:19:03;99392.03;;;18.70;80.03
44138;BME280;29800;55.942;37.314;2022-07-06T03:21:29;99400.53;;;18.73;80.17
44138;BME280;29800;55.942;37.314;2022-07-06T03:23:55;99396.81;;;18.78;80.22
44138;BME280;29800;55.942;37.314;2022-07-06T03:26:22;99391.66;;;18.99;79.89
44138;BME280;29800;55.942;37.314;2022-07-06T03:28:48;99389.44;;;19.10;79.57
44138;BME280;29800;55.942;37.314;2022-07-06T03:31:15;99388.75;;;19.27;79.04
44138;BME280;29800;55.942;37.314;2022-07-06T03:33:41;99397.88;;;19.27;78.84
44138;BME280;29800;55.942;37.314;2022-07-06T03:36:08;99408.84;;;19.33;79.00
44138;BME280;29800;55.942;37.314;2022-07-06T03:38:35;99396.31;;;19.35;79.11
44138;BME280;29800;55.942;37.314;2022-07-06T03:41:02;99400.59;;;19.41;79.15
44138;BME280;29800;55.942;37.314;2022-07-06T03:43:29;99400.78;;;19.45;78.99
44138;BME280;29800;55.942;37.314;2022-07-06T03:45:56;99400.13;;;19.48;78.91
44138;BME280;29800;55.942;37.314;2022-07-06T03:48:22;99398.84;;;19.54;78.95
44138;BME280;29800;55.942;37.314;2022-07-06T03:50:49;99395.94;;;19.59;79.20
44138;BME280;29800;55.942;37.314;2022-07-06T03:53:16;99404.63;;;19.67;79.28
44138;BME280;29800;55.942;37.314;2022-07-06T03:55:42;99401.41;;;19.73;79.18
44138;BME280;29800;55.942;37.314;2022-07-06T03:58:10;99397.38;;;19.79;79.13
44138;BME280;29800;55.942;37.314;2022-07-06T04:00:39;99392.16;;;19.87;78.69
44138;BME280;29800;55.942;37.314;2022-07-06T04:03:09;99393.34;;;19.94;78.52
44138;BME280;29800;55.942;37.314;2022-07-06T04:05:42;99398.13;;;20.02;78.73
44138;BME280;29800;55.942;37.314;2022-07-06T04:08:08;99388.50;;;20.09;78.93
44138;BME280;29800;55.942;37.314;2022-07-06T04:10:42;99388.69;;;20.21;78.81
44138;BME280;29800;55.942;37.314;2022-07-06T04:13:09;99382.66;;;20.28;78.60
44138;BME280;29800;55.942;37.314;2022-07-06T04:15:35;99383.81;;;20.35;78.51
44138;BME280;29800;55.942;37.314;2022-07-06T04:18:02;99388.91;;;20.42;78.93
44138;BME280;29800;55.942;37.314;2022-07-06T04:20:33;99381.72;;;20.50;78.43
44138;BME280;29800;55.942;37.314;2022-07-06T04:23:00;99381.72;;;20.59;78.41
44138;BME280;29800;55.942;37.314;2022-07-06T04:25:27;99381.28;;;20.65;78.27
44138;BME280;29800;55.942;37.314;2022-07-06T04:27:57;99379.16;;;20.80;77.27
44138;BME280;29800;55.942;37.314;2022-07-06T04:30:23;99373.25;;;20.90;76.53
44138;BME280;29800;55.942;37.314;2022-07-06T04:32:49;99378.16;;;21.02;76.58
44138;BME280;29800;55.942;37.314;2022-07-06T04:35:16;99373.06;;;21.13;77.03
44138;BME280;29800;55.942;37.314;2022-07-06T04:37:45;99376.66;;;21.22;76.30
44138;BME280;29800;55.942;37.314;2022-07-06T04:40:16;99376.66;;;21.30;76.08
44138;BME280;29800;55.942;37.314;2022-07-06T04:42:43;99370.72;;;21.50;74.67
44138;BME280;29800;55.942;37.314;2022-07-06T04:45:10;99371.31;;;21.64;74.64
44138;BME280;29800;55.942;37.314;2022-07-06T04:47:36;99369.81;;;21.75;73.93
44138;BME280;29800;55.942;37.314;2022-07-06T04:50:04;99367.16;;;21.79;74.72
44138;BME280;29800;55.942;37.314;2022-07-06T04:52:31;99367.50;;;21.86;73.80
44138;BME280;29800;55.942;37.314;2022-07-06T04:54:58;99364.16;;;21.93;74.13
44138;BME280;29800;55.942;37.314;2022-07-06T04:57:24;99365.44;;;22.04;72.84
44138;BME280;29800;55.942;37.314;2022-07-06T04:59:53;99359.47;;;22.14;73.03
44138;BME280;29800;55.942;37.314;2022-07-06T05:02:19;99356.16;;;22.21;73.57
44138;BME280;29800;55.942;37.314;2022-07-06T05:04:45;99356.28;;;22.25;73.37
44138;BME280;29800;55.942;37.314;2022-07-06T05:07:12;99353.63;;;22.28;73.64
44138;BME280;29800;55.942;37.314;2022-07-06T05:09:38;99352.66;;;22.33;73.83
44138;BME280;29800;55.942;37.314;2022-07-06T05:12:04;99350.16;;;22.40;73.05
44138;BME280;29800;55.942;37.314;2022-07-06T05:14:31;99363.91;;;22.45;73.67
44138;BME280;29800;55.942;37.314;2022-07-06T05:16:57;99358.13;;;22.50;73.37
44138;BME280;29800;55.942;37.314;2022-07-06T05:19:23;99356.09;;;22.60;73.96
44138;BME280;29800;55.942;37.314;2022-07-06T05:21:49;99350.91;;;22.70;72.51
44138;BME280;29800;55.942;37.314;2022-07-06T05:24:16;99346.41;;;22.78;72.92
44138;BME280;29800;55.942;37.314;2022-07-06T05:26:42;99357.13;;;22.88;71.84
44138;BME280;29800;55.942;37.314;2022-07-06T05:29:09;99355.78;;;22.94;71.45
44138;BME280;29800;55.942;37.314;2022-07-06T05:31:35;99353.06;;;23.07;71.46
44138;BME280;29800;55.942;37.314;2022-07-06T05:34:02;99358.22;;;23.17;69.75
44138;BME280;29800;55.942;37.314;2022-07-06T05:36:29;99351.50;;;23.30;68.78
44138;BME280;29800;55.942;37.314;2022-07-06T05:38:55;99354.31;;;23.43;67.90
44138;BME280;29800;55.942;37.314;2022-07-06T05:41:22;99354.25;;;23.52;67.59
44138;BME280;29800;55.942;37.314;2022-07-06T05:43:48;99351.44;;;23.64;68.77
44138;BME280;29800;55.942;37.314;2022-07-06T05:46:14;99351.72;;;23.71;68.91
44138;BME280;29800;55.942;37.314;2022-07-06T05:48:40;99354.72;;;23.78;68.98
44138;BME280;29800;55.942;37.314;2022-07-06T05:51:36;99343.00;;;23.85;66.99
44138;BME280;29800;55.942;37.314;2022-07-06T05:54:02;99350.00;;;23.91;66.65
44138;BME280;29800;55.942;37.314;2022-07-06T05:56:28;99349.75;;;23.96;66.25
44138;BME280;29800;55.942;37.314;2022-07-06T05:58:54;99348.22;;;23.99;65.15
44138;BME280;29800;55.942;37.314;2022-07-06T06:01:20;99350.47;;;24.06;65.98
44138;BME280;29800;55.942;37.314;2022-07-06T06:03:55;99352.19;;;24.10;64.41
44138;BME280;29800;55.942;37.314;2022-07-06T06:06:21;99348.34;;;24.15;63.74
44138;BME280;29800;55.942;37.314;2022-07-06T06:08:47;99338.56;;;24.21;63.69
44138;BME280;29800;55.942;37.314;2022-07-06T06:11:14;99337.97;;;24.28;64.17
44138;BME280;29800;55.942;37.314;2022-07-06T06:13:40;99341.31;;;24.33;63.06
44138;BME280;29800;55.942;37.314;2022-07-06T06:16:06;99334.31;;;24.39;63.34
44138;BME280;29800;55.942;37.314;2022-07-06T06:18:33;99344.13;;;24.46;64.06
44138;BME280;29800;55.942;37.314;2022-07-06T06:20:59;99338.72;;;24.53;64.76
44138;BME280;29800;55.942;37.314;2022-07-06T06:23:26;99328.25;;;24.62;64.81
44138;BME280;29800;55.942;37.314;2022-07-06T06:25:52;99332.44;;;24.68;64.26
44138;BME280;29800;55.942;37.314;2022-07-06T06:28:18;99333.81;;;24.74;63.10
44138;BME280;29800;55.942;37.314;2022-07-06T06:30:44;99334.38;;;24.80;61.22
44138;BME280;29800;55.942;37.314;2022-07-06T06:33:14;99325.72;;;24.85;61.29
44138;BME280;29800;55.942;37.314;2022-07-06T06:35:45;99329.72;;;25.00;61.24
44138;BME280;29800;55.942;37.314;2022-07-06T06:38:12;99341.13;;;25.07;60.95
44138;BME280;29800;55.942;37.314;2022-07-06T06:40:39;99326.03;;;25.12;59.76
44138;BME280;29800;55.942;37.314;2022-07-06T06:43:05;99337.81;;;25.18;59.45
44138;BME280;29800;55.942;37.314;2022-07-06T06:45:35;99335.09;;;25.21;59.40
44138;BME280;29800;55.942;37.314;2022-07-06T06:48:02;99333.09;;;25.34;60.73
44138;BME280;29800;55.942;37.314;2022-07-06T06:50:28;99335.25;;;25.41;59.96
44138;BME280;29800;55.942;37.314;2022-07-06T06:52:54;99341.88;;;25.48;59.59
44138;BME280;29800;55.942;37.314;2022-07-06T06:55:20;99333.63;;;25.56;59.59
44138;BME280;29800;55.942;37.314;2022-07-06T06:57:47;99344.28;;;25.66;59.35
44138;BME280;29800;55.942;37.314;2022-07-06T07:00:13;99330.03;;;25.71;58.09
44138;BME280;29800;55.942;37.314;2022-07-06T07:02:40;99332.09;;;25.74;58.64
44138;BME280;29800;55.942;37.314;2022-07-06T07:05:06;99330.94;;;25.91;59.89
44138;BME280;29800;55.942;37.314;2022-07-06T07:07:32;99333.19;;;26.01;60.02
44138;BME280;29800;55.942;37.314;2022-07-06T07:09:59;99334.25;;;26.13;59.32
44138;BME280;29800;55.942;37.314;2022-07-06T07:12:25;99337.78;;;26.26;58.42
44138;BME280;29800;55.942;37.314;2022-07-06T07:14:52;99331.88;;;26.31;57.05
44138;BME280;29800;55.942;37.314;2022-07-06T07:17:18;99331.50;;;26.32;58.17
44138;BME280;29800;55.942;37.314;2022-07-06T07:19:44;99329.22;;;26.38;56.13
44138;BME280;29800;55.942;37.314;2022-07-06T07:22:10;99327.75;;;26.44;56.17
44138;BME280;29800;55.942;37.314;2022-07-06T07:24:37;99328.56;;;26.45;57.13
44138;BME280;29800;55.942;37.314;2022-07-06T07:27:03;99329.53;;;26.52;56.46
44138;BME280;29800;55.942;37.314;2022-07-06T07:29:30;99325.28;;;26.58;56.18
44138;BME280;29800;55.942;37.314;2022-07-06T07:31:57;99328.25;;;26.66;55.74
44138;BME280;29800;55.942;37.314;2022-07-06T07:34:23;99328.41;;;26.73;54.63
44138;BME280;29800;55.942;37.314;2022-07-06T07:36:49;99324.19;;;26.83;55.64
44138;BME280;29800;55.942;37.314;2022-07-06T07:39:15;99324.03;;;26.95;55.71
44138;BME280;29800;55.942;37.314;2022-07-06T07:41:41;99328.97;;;27.02;53.77
44138;BME280;29800;55.942;37.314;2022-07-06T07:44:08;99334.75;;;27.09;53.58
44138;BME280;29800;55.942;37.314;2022-07-06T07:46:34;99330.81;;;27.13;52.95
44138;BME280;29800;55.942;37.314;2022-07-06T07:49:00;99334.13;;;27.19;53.10
44138;BME280;29800;55.942;37.314;2022-07-06T07:51:27;99339.16;;;27.29;53.42
44138;BME280;29800;55.942;37.314;2022-07-06T07:53:53;99338.34;;;27.29;52.31
44138;BME280;29800;55.942;37.314;2022-07-06T07:56:19;99334.44;;;27.34;52.39
44138;BME280;29800;55.942;37.314;2022-07-06T07:58:46;99342.63;;;27.42;51.38
44138;BME280;29800;55.942;37.314;2022-07-06T08:01:19;99334.69;;;27.48;52.06
44138;BME280;29800;55.942;37.314;2022-07-06T08:03:46;99330.00;;;27.56;53.56
44138;BME280;29800;55.942;37.314;2022-07-06T08:06:12;99331.00;;;27.67;52.65
44138;BME280;29800;55.942;37.314;2022-07-06T08:08:38;99326.75;;;27.77;50.85
44138;BME280;29800;55.942;37.314;2022-07-06T08:11:04;99328.50;;;27.85;50.04
44138;BME280;29800;55.942;37.314;2022-07-06T08:13:30;99325.94;;;27.99;50.91
44138;BME280;29800;55.942;37.314;2022-07-06T08:15:56;99325.25;;;28.06;51.43
44138;BME280;29800;55.942;37.314;2022-07-06T08:18:22;99325.50;;;28.24;50.15
44138;BME280;29800;55.942;37.314;2022-07-06T08:20:48;99334.84;;;28.32;48.95
44138;BME280;29800;55.942;37.314;2022-07-06T08:23:14;99330.88;;;28.36;49.63
44138;BME280;29800;55.942;37.314;2022-07-06T08:25:40;99321.31;;;28.41;49.09
44138;BME280;29800;55.942;37.314;2022-07-06T08:28:06;99332.66;;;28.48;48.56
44138;BME280;29800;55.942;37.314;2022-07-06T08:30:32;99332.66;;;28.48;48.68
44138;BME280;29800;55.942;37.314;2022-07-06T08:33:01;99331.47;;;28.49;49.41
44138;BME280;29800;55.942;37.314;2022-07-06T08:35:27;99333.50;;;28.49;48.24
44138;BME280;29800;55.942;37.314;2022-07-06T08:37:54;99330.66;;;28.49;48.06
44138;BME280;29800;55.942;37.314;2022-07-06T08:40:20;99332.72;;;28.52;47.47
44138;BME280;29800;55.942;37.314;2022-07-06T08:42:47;99328.28;;;28.51;47.50
44138;BME280;29800;55.942;37.314;2022-07-06T08:45:16;99334.34;;;28.53;47.80
44138;BME280;29800;55.942;37.314;2022-07-06T08:47:42;99329.16;;;28.55;48.59
44138;BME280;29800;55.942;37.314;2022-07-06T08:50:09;99326.06;;;28.64;47.32
44138;BME280;29800;55.942;37.314;2022-07-06T08:52:36;99323.00;;;28.76;47.61
44138;BME280;29800;55.942;37.314;2022-07-06T08:55:03;99330.28;;;28.81;47.89
44138;BME280;29800;55.942;37.314;2022-07-06T08:57:29;99323.22;;;28.94;48.17
44138;BME280;29800;55.942;37.314;2022-07-06T08:59:55;99317.75;;;29.08;47.43
44138;BME280;29800;55.942;37.314;2022-07-06T09:02:25;99319.03;;;29.14;46.18
44138;BME280;29800;55.942;37.314;2022-07-06T09:04:56;99316.09;;;29.04;47.19
44138;BME280;29800;55.942;37.314;2022-07-06T09:07:27;99317.06;;;29.19;45.92
44138;BME280;29800;55.942;37.314;2022-07-06T09:09:55;99315.19;;;29.30;45.74
44138;BME280;29800;55.942;37.314;2022-07-06T09:12:22;99311.69;;;29.40;46.51
44138;BME280;29800;55.942;37.314;2022-07-06T09:14:49;99312.91;;;29.46;46.42
44138;BME280;29800;55.942;37.314;2022-07-06T09:17:15;99304.09;;;29.51;45.15
44138;BME280;29800;55.942;37.314;2022-07-06T09:19:41;99302.19;;;29.63;44.95
44138;BME280;29800;55.942;37.314;2022-07-06T09:22:30;99316.00;;;29.75;44.86
44138;BME280;29800;55.942;37.314;2022-07-06T09:25:11;99308.84;;;29.81;43.09
44138;BME280;29800;55.942;37.314;2022-07-06T09:27:40;99318.50;;;29.80;45.04
44138;BME280;29800;55.942;37.314;2022-07-06T09:30:08;99303.81;;;29.64;43.61
44138;BME280;29800;55.942;37.314;2022-07-06T09:32:40;99309.84;;;29.62;44.14
44138;BME280;29800;55.942;37.314;2022-07-06T09:35:09;99304.56;;;29.57;44.81
44138;BME280;29800;55.942;37.314;2022-07-06T09:37:45;99305.00;;;29.63;45.80
44138;BME280;29800;55.942;37.314;2022-07-06T09:40:17;99296.59;;;29.66;44.65
44138;BME280;29800;55.942;37.314;2022-07-06T09:42:45;99299.16;;;29.82;44.38
44138;BME280;29800;55.942;37.314;2022-07-06T09:45:11;99304.47;;;29.91;43.79
44138;BME280;29800;55.942;37.314;2022-07-06T09:47:37;99298.06;;;29.98;43.39
44138;BME280;29800;55.942;37.314;2022-07-06T09:50:05;99296.84;;;29.99;44.14
44138;BME280;29800;55.942;37.314;2022-07-06T09:52:35;99290.09;;;30.11;44.56
44138;BME280;29800;55.942;37.314;2022-07-06T09:55:06;99295.78;;;30.14;42.38
44138;BME280;29800;55.942;37.314;2022-07-06T09:57:52;99292.94;;;30.14;41.66
44138;BME280;29800;55.942;37.314;2022-07-06T10:00:19;99288.09;;;30.11;42.29
44138;BME280;29800;55.942;37.314;2022-07-06T10:02:45;99291.66;;;30.01;41.94
44138;BME280;29800;55.942;37.314;2022-07-06T10:05:16;99289.66;;;30.05;43.09
44138;BME280;29800;55.942;37.314;2022-07-06T10:07:45;99285.69;;;30.13;42.59
44138;BME280;29800;55.942;37.314;2022-07-06T10:10:15;99281.31;;;30.23;42.58
44138;BME280;29800;55.942;37.314;2022-07-06T10:12:44;99282.56;;;30.33;41.29
44138;BME280;29800;55.942;37.314;2022-07-06T10:15:14;99284.22;;;30.37;40.90
44138;BME280;29800;55.942;37.314;2022-07-06T10:17:42;99283.84;;;30.39;39.63
44138;BME280;29800;55.942;37.314;2022-07-06T10:20:09;99283.44;;;30.37;41.70
44138;BME280;29800;55.942;37.314;2022-07-06T10:22:37;99281.72;;;30.25;41.22
44138;BME280;29800;55.942;37.314;2022-07-06T10:25:05;99275.91;;;30.00;41.04
44138;BME280;29800;55.942;37.314;2022-07-06T10:27:32;99279.03;;;29.84;42.21
44138;BME280;29800;55.942;37.314;2022-07-06T10:30:02;99276.47;;;29.68;42.86
44138;BME280;29800;55.942;37.314;2022-07-06T10:32:29;99276.34;;;29.50;42.16
44138;BME280;29800;55.942;37.314;2022-07-06T10:34:55;99281.00;;;29.35;43.25
44138;BME280;29800;55.942;37.314;2022-07-06T10:37:26;99272.09;;;29.26;42.77
44138;BME280;29800;55.942;37.314;2022-07-06T10:39:52;99271.91;;;29.11;42.95
44138;BME280;29800;55.942;37.314;2022-07-06T10:45:14;99260.44;;;28.93;43.52
44138;BME280;29800;55.942;37.314;2022-07-06T10:47:41;99263.13;;;28.83;44.95
44138;BME280;29800;55.942;37.314;2022-07-06T10:50:08;99261.97;;;28.84;44.97
44138;BME280;29800;55.942;37.314;2022-07-06T10:52:51;99256.47;;;28.98;45.56
44138;BME280;29800;55.942;37.314;2022-07-06T10:55:35;99262.31;;;29.16;43.98
44138;BME280;29800;55.942;37.314;2022-07-06T10:58:03;99268.13;;;29.34;42.67
44138;BME280;29800;55.942;37.314;2022-07-06T11:00:49;99255.03;;;29.56;43.92
44138;BME280;29800;55.942;37.314;2022-07-06T11:06:09;99245.56;;;29.82;42.07
44138;BME280;29800;55.942;37.314;2022-07-06T11:08:45;99239.56;;;29.87;41.16
44138;BME280;29800;55.942;37.314;2022-07-06T11:14:06;99236.53;;;30.21;39.15
44138;BME280;29800;55.942;37.314;2022-07-06T11:19:16;99241.13;;;30.55;40.69
44138;BME280;29800;55.942;37.314;2022-07-06T11:24:31;99230.75;;;30.84;37.86
44138;BME280;29800;55.942;37.314;2022-07-06T11:27:01;99227.97;;;30.91;36.58
44138;BME280;29800;55.942;37.314;2022-07-06T11:29:28;99233.66;;;31.09;38.05
44138;BME280;29800;55.942;37.314;2022-07-06T11:31:56;99224.78;;;31.11;37.24
44138;BME280;29800;55.942;37.314;2022-07-06T11:34:27;99221.56;;;31.16;36.03
44138;BME280;29800;55.942;37.314;2022-07-06T11:37:01;99227.63;;;31.18;35.03
44138;BME280;29800;55.942;37.314;2022-07-06T11:39:29;99231.25;;;31.22;35.54
44138;BME280;29800;55.942;37.314;2022-07-06T11:41:55;99230.47;;;31.29;33.76
44138;BME280;29800;55.942;37.314;2022-07-06T11:44:22;99229.66;;;31.36;34.58
44138;BME280;29800;55.942;37.314;2022-07-06T11:46:48;99230.44;;;31.36;34.03
44138;BME280;29800;55.942;37.314;2022-07-06T11:49:15;99227.63;;;31.29;33.48
44138;BME280;29800;55.942;37.314;2022-07-06T11:51:42;99220.75;;;31.12;34.90
44138;BME280;29800;55.942;37.314;2022-07-06T11:54:17;99213.47;;;31.00;35.09
44138;BME280;29800;55.942;37.314;2022-07-06T11:56:53;99217.47;;;30.92;35.61
44138;BME280;29800;55.942;37.314;2022-07-06T11:59:23;99221.47;;;30.76;34.36
44138;BME280;29800;55.942;37.314;2022-07-06T12:01:56;99223.06;;;30.70;34.68
44138;BME280;29800;55.942;37.314;2022-07-06T12:04:24;99225.88;;;30.70;34.82
44138;BME280;29800;55.942;37.314;2022-07-06T12:06:51;99219.84;;;30.72;34.77
44138;BME280;29800;55.942;37.314;2022-07-06T12:09:17;99223.84;;;30.71;35.71
44138;BME280;29800;55.942;37.314;2022-07-06T12:11:45;99222.63;;;30.65;34.35
44138;BME280;29800;55.942;37.314;2022-07-06T12:14:20;99227.03;;;30.51;35.98
44138;BME280;29800;55.942;37.314;2022-07-06T12:16:48;99214.84;;;30.36;35.94
44138;BME280;29800;55.942;37.314;2022-07-06T12:19:16;99231.75;;;30.26;36.29
44138;BME280;29800;55.942;37.314;2022-07-06T12:21:45;99222.44;;;30.18;37.17
44138;BME280;29800;55.942;37.314;2022-07-06T12:24:20;99225.25;;;30.18;37.03
44138;BME280;29800;55.942;37.314;2022-07-06T12:26:47;99219.59;;;30.18;36.47
44138;BME280;29800;55.942;37.314;2022-07-06T12:29:14;99221.25;;;30.22;37.52
44138;BME280;29800;55.942;37.314;2022-07-06T12:31:43;99209.97;;;30.30;37.56
44138;BME280;29800;55.942;37.314;2022-07-06T12:34:17;99209.28;;;30.47;37.72
44138;BME280;29800;55.942;37.314;2022-07-06T12:36:51;99209.28;;;30.54;38.48
44138;BME280;29800;55.942;37.314;2022-07-06T12:39:28;99203.69;;;30.62;37.05
44138;BME280;29800;55.942;37.314;2022-07-06T12:42:01;99204.09;;;30.71;39.40
44138;BME280;29800;55.942;37.314;2022-07-06T12:44:31;99200.91;;;30.79;38.23
44138;BME280;29800;55.942;37.314;2022-07-06T12:47:06;99198.88;;;30.87;37.44
44138;BME280;29800;55.942;37.314;2022-07-06T12:49:33;99193.22;;;30.87;37.77
44138;BME280;29800;55.942;37.314;2022-07-06T12:54:35;99200.53;;;30.99;38.21
44138;BME280;29800;55.942;37.314;2022-07-06T12:57:15;99200.56;;;31.17;39.98
44138;BME280;29800;55.942;37.314;2022-07-06T12:59:54;99198.13;;;31.30;38.46
44138;BME280;29800;55.942;37.314;2022-07-06T13:02:33;99205.41;;;31.34;35.89
44138;BME280;29800;55.942;37.314;2022-07-06T13:05:04;99201.38;;;31.28;36.52
44138;BME280;29800;55.942;37.314;2022-07-06T13:07:33;99207.84;;;31.32;35.72
44138;BME280;29800;55.942;37.314;2022-07-06T13:10:05;99210.25;;;31.38;35.12